Urb Flamboyanes, Puerto Rico
Current Conditions -  °F | °C
As of 5:50 AM on Sunday 21 Dec 2014 (Local Time) from TJPS Reporting Station
Few Clouds Few Clouds  
Wind Chill: 72°   Ceiling: Unl
Heat Index: 72°   Visibility: 8mi
Dew Point: 66°   Wind: 6mph
Humidity: 83%   Direction: 40°NE
Pressure: 29.96"   Gusts: NA
Location:  18.0093°N, 66.6209°W
Report Text: TJPS 210950Z 04005KT 8SM FEW025 22/19 A2996
Loading
Personal Weather Stations






























Interactive Weather Map New forecast layout! Learn more

10-Day Weather Forecast

Advertisements
Track Severe Weather on mobile